sensor_id;sensor_type;location;lat;lon;timestamp;P1;durP1;ratioP1;P2;durP2;ratioP2
14408;SDS011;7289;50.706;4.992;2022-11-12T00:00:00;0.20;;;0.20;;
14408;SDS011;7289;50.706;4.992;2022-11-12T00:02:48;0.20;;;0.20;;
14408;SDS011;7289;50.706;4.992;2022-11-12T00:05:35;0.20;;;0.20;;
14408;SDS011;7289;50.706;4.992;2022-11-12T00:08:22;0.20;;;0.20;;
14408;SDS011;7289;50.706;4.992;2022-11-12T00:11:10;0.20;;;0.20;;
14408;SDS011;7289;50.706;4.992;2022-11-12T00:13:56;0.20;;;0.20;;
14408;SDS011;7289;50.706;4.992;2022-11-12T00:16:43;0.20;;;0.20;;
14408;SDS011;7289;50.706;4.992;2022-11-12T00:19:31;0.20;;;0.20;;
14408;SDS011;7289;50.706;4.992;2022-11-12T00:22:18;0.20;;;0.20;;
14408;SDS011;7289;50.706;4.992;2022-11-12T00:25:06;0.20;;;0.20;;
14408;SDS011;7289;50.706;4.992;2022-11-12T00:27:59;0.20;;;0.20;;
14408;SDS011;7289;50.706;4.992;2022-11-12T00:30:46;0.20;;;0.20;;
14408;SDS011;7289;50.706;4.992;2022-11-12T00:33:37;0.20;;;0.20;;
14408;SDS011;7289;50.706;4.992;2022-11-12T00:36:26;0.20;;;0.20;;
14408;SDS011;7289;50.706;4.992;2022-11-12T00:39:13;0.20;;;0.20;;
14408;SDS011;7289;50.706;4.992;2022-11-12T00:42:00;0.20;;;0.20;;
14408;SDS011;7289;50.706;4.992;2022-11-12T00:44:47;0.20;;;0.20;;
14408;SDS011;7289;50.706;4.992;2022-11-12T00:47:34;0.20;;;0.20;;
14408;SDS011;7289;50.706;4.992;2022-11-12T00:50:21;0.20;;;0.20;;
14408;SDS011;7289;50.706;4.992;2022-11-12T00:53:09;0.20;;;0.20;;
14408;SDS011;7289;50.706;4.992;2022-11-12T00:55:59;0.20;;;0.20;;
14408;SDS011;7289;50.706;4.992;2022-11-12T00:58:47;0.20;;;0.20;;
14408;SDS011;7289;50.706;4.992;2022-11-12T01:01:34;0.20;;;0.20;;
14408;SDS011;7289;50.706;4.992;2022-11-12T01:04:21;0.20;;;0.20;;
14408;SDS011;7289;50.706;4.992;2022-11-12T01:07:08;0.20;;;0.20;;
14408;SDS011;7289;50.706;4.992;2022-11-12T01:09:56;0.20;;;0.20;;
14408;SDS011;7289;50.706;4.992;2022-11-12T01:12:43;0.20;;;0.20;;
14408;SDS011;7289;50.706;4.992;2022-11-12T01:15:30;0.20;;;0.20;;
14408;SDS011;7289;50.706;4.992;2022-11-12T01:18:16;0.20;;;0.20;;
14408;SDS011;7289;50.706;4.992;2022-11-12T01:21:04;0.20;;;0.20;;
14408;SDS011;7289;50.706;4.992;2022-11-12T01:23:52;0.20;;;0.20;;
14408;SDS011;7289;50.706;4.992;2022-11-12T01:26:40;0.20;;;0.20;;
14408;SDS011;7289;50.706;4.992;2022-11-12T01:29:27;0.20;;;0.20;;
14408;SDS011;7289;50.706;4.992;2022-11-12T01:32:14;0.20;;;0.20;;
14408;SDS011;7289;50.706;4.992;2022-11-12T01:35:01;0.20;;;0.20;;
14408;SDS011;7289;50.706;4.992;2022-11-12T01:37:48;0.20;;;0.20;;
14408;SDS011;7289;50.706;4.992;2022-11-12T01:40:34;0.20;;;0.20;;
14408;SDS011;7289;50.706;4.992;2022-11-12T01:43:24;0.20;;;0.20;;
14408;SDS011;7289;50.706;4.992;2022-11-12T01:46:12;0.20;;;0.20;;
14408;SDS011;7289;50.706;4.992;2022-11-12T01:49:04;0.20;;;0.20;;
14408;SDS011;7289;50.706;4.992;2022-11-12T01:51:55;0.20;;;0.20;;
14408;SDS011;7289;50.706;4.992;2022-11-12T01:54:48;0.20;;;0.20;;
14408;SDS011;7289;50.706;4.992;2022-11-12T01:57:37;0.20;;;0.20;;
14408;SDS011;7289;50.706;4.992;2022-11-12T02:00:28;0.20;;;0.20;;
14408;SDS011;7289;50.706;4.992;2022-11-12T02:03:16;0.20;;;0.20;;
14408;SDS011;7289;50.706;4.992;2022-11-12T02:06:07;0.20;;;0.20;;
14408;SDS011;7289;50.706;4.992;2022-11-12T02:08:56;0.20;;;0.20;;
14408;SDS011;7289;50.706;4.992;2022-11-12T02:11:43;0.20;;;0.20;;
14408;SDS011;7289;50.706;4.992;2022-11-12T02:14:30;0.20;;;0.20;;
14408;SDS011;7289;50.706;4.992;2022-11-12T02:17:18;0.20;;;0.20;;
14408;SDS011;7289;50.706;4.992;2022-11-12T02:20:07;0.20;;;0.20;;
14408;SDS011;7289;50.706;4.992;2022-11-12T02:22:56;0.20;;;0.20;;
14408;SDS011;7289;50.706;4.992;2022-11-12T02:25:43;0.20;;;0.20;;
14408;SDS011;7289;50.706;4.992;2022-11-12T02:28:30;0.20;;;0.20;;
14408;SDS011;7289;50.706;4.992;2022-11-12T02:31:18;0.20;;;0.20;;
14408;SDS011;7289;50.706;4.992;2022-11-12T02:34:05;0.20;;;0.20;;
14408;SDS011;7289;50.706;4.992;2022-11-12T02:36:52;0.20;;;0.20;;
14408;SDS011;7289;50.706;4.992;2022-11-12T02:39:40;0.20;;;0.20;;
14408;SDS011;7289;50.706;4.992;2022-11-12T02:42:27;0.20;;;0.20;;
14408;SDS011;7289;50.706;4.992;2022-11-12T02:45:15;0.20;;;0.20;;
14408;SDS011;7289;50.706;4.992;2022-11-12T02:48:02;0.20;;;0.20;;
14408;SDS011;7289;50.706;4.992;2022-11-12T02:50:49;0.20;;;0.20;;
14408;SDS011;7289;50.706;4.992;2022-11-12T02:53:36;0.20;;;0.20;;
14408;SDS011;7289;50.706;4.992;2022-11-12T02:56:24;0.20;;;0.20;;
14408;SDS011;7289;50.706;4.992;2022-11-12T02:59:11;0.20;;;0.20;;
14408;SDS011;7289;50.706;4.992;2022-11-12T03:01:58;0.20;;;0.20;;
14408;SDS011;7289;50.706;4.992;2022-11-12T03:04:45;0.20;;;0.20;;
14408;SDS011;7289;50.706;4.992;2022-11-12T03:07:33;0.20;;;0.20;;
14408;SDS011;7289;50.706;4.992;2022-11-12T03:10:20;0.20;;;0.20;;
14408;SDS011;7289;50.706;4.992;2022-11-12T03:13:08;0.27;;;0.27;;
14408;SDS011;7289;50.706;4.992;2022-11-12T03:15:57;0.20;;;0.20;;
14408;SDS011;7289;50.706;4.992;2022-11-12T03:18:45;0.20;;;0.20;;
14408;SDS011;7289;50.706;4.992;2022-11-12T03:21:32;0.27;;;0.27;;
14408;SDS011;7289;50.706;4.992;2022-11-12T03:24:19;0.20;;;0.20;;
14408;SDS011;7289;50.706;4.992;2022-11-12T03:27:06;0.20;;;0.20;;
14408;SDS011;7289;50.706;4.992;2022-11-12T03:29:54;0.20;;;0.20;;
14408;SDS011;7289;50.706;4.992;2022-11-12T03:32:40;0.20;;;0.20;;
14408;SDS011;7289;50.706;4.992;2022-11-12T03:35:28;0.20;;;0.20;;
14408;SDS011;7289;50.706;4.992;2022-11-12T03:38:16;0.20;;;0.20;;
14408;SDS011;7289;50.706;4.992;2022-11-12T03:41:02;0.20;;;0.20;;
14408;SDS011;7289;50.706;4.992;2022-11-12T03:43:49;0.20;;;0.20;;
14408;SDS011;7289;50.706;4.992;2022-11-12T03:46:38;0.20;;;0.20;;
14408;SDS011;7289;50.706;4.992;2022-11-12T03:49:28;0.20;;;0.20;;
14408;SDS011;7289;50.706;4.992;2022-11-12T03:52:15;0.20;;;0.20;;
14408;SDS011;7289;50.706;4.992;2022-11-12T03:55:02;0.20;;;0.20;;
14408;SDS011;7289;50.706;4.992;2022-11-12T03:57:49;0.20;;;0.20;;
14408;SDS011;7289;50.706;4.992;2022-11-12T04:00:36;0.20;;;0.20;;
14408;SDS011;7289;50.706;4.992;2022-11-12T04:03:24;0.30;;;0.30;;
14408;SDS011;7289;50.706;4.992;2022-11-12T04:06:11;0.20;;;0.20;;
14408;SDS011;7289;50.706;4.992;2022-11-12T04:09:15;0.20;;;0.20;;
14408;SDS011;7289;50.706;4.992;2022-11-12T04:12:02;0.20;;;0.20;;
14408;SDS011;7289;50.706;4.992;2022-11-12T04:15:03;0.20;;;0.20;;
14408;SDS011;7289;50.706;4.992;2022-11-12T04:17:51;0.20;;;0.20;;
14408;SDS011;7289;50.706;4.992;2022-11-12T04:20:57;0.20;;;0.20;;
14408;SDS011;7289;50.706;4.992;2022-11-12T04:24:01;0.20;;;0.20;;
14408;SDS011;7289;50.706;4.992;2022-11-12T04:26:48;0.20;;;0.20;;
14408;SDS011;7289;50.706;4.992;2022-11-12T04:29:35;0.20;;;0.20;;
14408;SDS011;7289;50.706;4.992;2022-11-12T04:32:43;0.20;;;0.20;;
14408;SDS011;7289;50.706;4.992;2022-11-12T04:35:31;0.20;;;0.20;;
14408;SDS011;7289;50.706;4.992;2022-11-12T04:38:20;0.20;;;0.20;;
14408;SDS011;7289;50.706;4.992;2022-11-12T04:41:07;0.20;;;0.20;;
14408;SDS011;7289;50.706;4.992;2022-11-12T04:44:14;0.20;;;0.20;;
14408;SDS011;7289;50.706;4.992;2022-11-12T04:47:18;0.20;;;0.20;;
14408;SDS011;7289;50.706;4.992;2022-11-12T04:50:06;0.20;;;0.20;;
14408;SDS011;7289;50.706;4.992;2022-11-12T04:52:57;0.30;;;0.30;;
14408;SDS011;7289;50.706;4.992;2022-11-12T04:55:47;0.20;;;0.20;;
14408;SDS011;7289;50.706;4.992;2022-11-12T04:58:34;0.20;;;0.20;;
14408;SDS011;7289;50.706;4.992;2022-11-12T05:01:21;0.20;;;0.20;;
14408;SDS011;7289;50.706;4.992;2022-11-12T05:04:08;0.20;;;0.20;;
14408;SDS011;7289;50.706;4.992;2022-11-12T05:06:55;0.30;;;0.30;;
14408;SDS011;7289;50.706;4.992;2022-11-12T05:09:43;0.20;;;0.20;;
14408;SDS011;7289;50.706;4.992;2022-11-12T05:12:31;0.30;;;0.30;;
14408;SDS011;7289;50.706;4.992;2022-11-12T05:15:18;0.23;;;0.23;;
14408;SDS011;7289;50.706;4.992;2022-11-12T05:18:05;0.20;;;0.20;;
14408;SDS011;7289;50.706;4.992;2022-11-12T05:20:52;0.20;;;0.20;;
14408;SDS011;7289;50.706;4.992;2022-11-12T05:23:39;0.20;;;0.20;;
14408;SDS011;7289;50.706;4.992;2022-11-12T05:26:25;0.20;;;0.20;;
14408;SDS011;7289;50.706;4.992;2022-11-12T05:29:14;0.20;;;0.20;;
14408;SDS011;7289;50.706;4.992;2022-11-12T05:32:01;0.20;;;0.20;;
14408;SDS011;7289;50.706;4.992;2022-11-12T05:34:48;0.20;;;0.20;;
14408;SDS011;7289;50.706;4.992;2022-11-12T05:37:35;0.30;;;0.30;;
14408;SDS011;7289;50.706;4.992;2022-11-12T05:40:22;0.20;;;0.20;;
14408;SDS011;7289;50.706;4.992;2022-11-12T05:43:09;0.20;;;0.20;;
14408;SDS011;7289;50.706;4.992;2022-11-12T05:45:57;0.20;;;0.20;;
14408;SDS011;7289;50.706;4.992;2022-11-12T05:48:44;0.20;;;0.20;;
14408;SDS011;7289;50.706;4.992;2022-11-12T05:51:31;0.20;;;0.20;;
14408;SDS011;7289;50.706;4.992;2022-11-12T05:54:17;0.30;;;0.30;;
14408;SDS011;7289;50.706;4.992;2022-11-12T05:57:04;0.20;;;0.20;;
14408;SDS011;7289;50.706;4.992;2022-11-12T05:59:51;0.20;;;0.20;;
14408;SDS011;7289;50.706;4.992;2022-11-12T06:02:39;0.20;;;0.20;;
14408;SDS011;7289;50.706;4.992;2022-11-12T06:05:27;0.20;;;0.20;;
14408;SDS011;7289;50.706;4.992;2022-11-12T06:08:14;0.20;;;0.20;;
14408;SDS011;7289;50.706;4.992;2022-11-12T06:11:01;0.23;;;0.23;;
14408;SDS011;7289;50.706;4.992;2022-11-12T06:13:47;0.20;;;0.20;;
14408;SDS011;7289;50.706;4.992;2022-11-12T06:16:34;0.20;;;0.20;;
14408;SDS011;7289;50.706;4.992;2022-11-12T06:19:23;0.20;;;0.20;;
14408;SDS011;7289;50.706;4.992;2022-11-12T06:22:09;0.27;;;0.27;;
14408;SDS011;7289;50.706;4.992;2022-11-12T06:24:56;0.20;;;0.20;;
14408;SDS011;7289;50.706;4.992;2022-11-12T06:27:43;0.20;;;0.20;;
14408;SDS011;7289;50.706;4.992;2022-11-12T06:30:30;0.30;;;0.30;;
14408;SDS011;7289;50.706;4.992;2022-11-12T06:33:17;0.20;;;0.20;;
14408;SDS011;7289;50.706;4.992;2022-11-12T06:36:05;0.20;;;0.20;;
14408;SDS011;7289;50.706;4.992;2022-11-12T06:38:53;0.20;;;0.20;;
14408;SDS011;7289;50.706;4.992;2022-11-12T06:41:39;0.20;;;0.20;;
14408;SDS011;7289;50.706;4.992;2022-11-12T06:44:26;0.20;;;0.20;;
14408;SDS011;7289;50.706;4.992;2022-11-12T06:47:13;0.20;;;0.20;;
14408;SDS011;7289;50.706;4.992;2022-11-12T06:50:00;0.20;;;0.20;;
14408;SDS011;7289;50.706;4.992;2022-11-12T06:52:48;0.20;;;0.20;;
14408;SDS011;7289;50.706;4.992;2022-11-12T06:55:35;0.20;;;0.20;;
14408;SDS011;7289;50.706;4.992;2022-11-12T06:58:22;0.20;;;0.20;;
14408;SDS011;7289;50.706;4.992;2022-11-12T07:01:11;0.20;;;0.20;;
14408;SDS011;7289;50.706;4.992;2022-11-12T07:03:59;0.20;;;0.20;;
14408;SDS011;7289;50.706;4.992;2022-11-12T07:06:46;0.20;;;0.20;;
14408;SDS011;7289;50.706;4.992;2022-11-12T07:09:35;0.20;;;0.20;;
14408;SDS011;7289;50.706;4.992;2022-11-12T07:12:22;0.20;;;0.20;;
14408;SDS011;7289;50.706;4.992;2022-11-12T07:15:09;0.30;;;0.30;;
14408;SDS011;7289;50.706;4.992;2022-11-12T07:17:56;0.27;;;0.27;;
14408;SDS011;7289;50.706;4.992;2022-11-12T07:20:43;0.20;;;0.20;;
14408;SDS011;7289;50.706;4.992;2022-11-12T07:23:30;0.20;;;0.20;;
14408;SDS011;7289;50.706;4.992;2022-11-12T07:26:20;0.20;;;0.20;;
14408;SDS011;7289;50.706;4.992;2022-11-12T07:29:08;0.20;;;0.20;;
14408;SDS011;7289;50.706;4.992;2022-11-12T07:31:54;0.20;;;0.20;;
14408;SDS011;7289;50.706;4.992;2022-11-12T07:34:41;0.20;;;0.20;;
14408;SDS011;7289;50.706;4.992;2022-11-12T07:37:28;0.27;;;0.27;;
14408;SDS011;7289;50.706;4.992;2022-11-12T07:40:15;0.20;;;0.20;;
14408;SDS011;7289;50.706;4.992;2022-11-12T07:43:03;0.20;;;0.20;;
14408;SDS011;7289;50.706;4.992;2022-11-12T07:45:50;0.20;;;0.20;;
14408;SDS011;7289;50.706;4.992;2022-11-12T07:48:37;0.20;;;0.20;;
14408;SDS011;7289;50.706;4.992;2022-11-12T07:51:25;0.20;;;0.20;;
14408;SDS011;7289;50.706;4.992;2022-11-12T07:54:14;0.20;;;0.20;;
14408;SDS011;7289;50.706;4.992;2022-11-12T07:57:00;0.20;;;0.20;;
14408;SDS011;7289;50.706;4.992;2022-11-12T07:59:49;0.20;;;0.20;;
14408;SDS011;7289;50.706;4.992;2022-11-12T08:02:35;0.20;;;0.20;;
14408;SDS011;7289;50.706;4.992;2022-11-12T08:05:22;0.20;;;0.20;;
14408;SDS011;7289;50.706;4.992;2022-11-12T08:08:09;0.20;;;0.20;;
14408;SDS011;7289;50.706;4.992;2022-11-12T08:10:56;0.20;;;0.20;;
14408;SDS011;7289;50.706;4.992;2022-11-12T08:13:44;0.20;;;0.20;;
14408;SDS011;7289;50.706;4.992;2022-11-12T08:16:32;0.20;;;0.20;;
14408;SDS011;7289;50.706;4.992;2022-11-12T08:19:19;0.20;;;0.20;;
14408;SDS011;7289;50.706;4.992;2022-11-12T08:22:06;0.20;;;0.20;;
14408;SDS011;7289;50.706;4.992;2022-11-12T08:24:53;0.20;;;0.20;;
14408;SDS011;7289;50.706;4.992;2022-11-12T08:27:41;0.20;;;0.20;;
14408;SDS011;7289;50.706;4.992;2022-11-12T08:30:28;0.20;;;0.20;;
14408;SDS011;7289;50.706;4.992;2022-11-12T08:33:16;0.20;;;0.20;;
14408;SDS011;7289;50.706;4.992;2022-11-12T08:36:04;0.20;;;0.20;;
14408;SDS011;7289;50.706;4.992;2022-11-12T08:38:52;0.20;;;0.20;;
14408;SDS011;7289;50.706;4.992;2022-11-12T08:41:39;0.20;;;0.20;;
14408;SDS011;7289;50.706;4.992;2022-11-12T08:44:26;0.20;;;0.20;;
14408;SDS011;7289;50.706;4.992;2022-11-12T08:47:12;0.20;;;0.20;;
14408;SDS011;7289;50.706;4.992;2022-11-12T08:50:00;0.20;;;0.20;;
14408;SDS011;7289;50.706;4.992;2022-11-12T08:52:47;0.20;;;0.20;;
14408;SDS011;7289;50.706;4.992;2022-11-12T08:55:34;0.20;;;0.20;;
14408;SDS011;7289;50.706;4.992;2022-11-12T08:58:23;0.20;;;0.20;;
14408;SDS011;7289;50.706;4.992;2022-11-12T09:01:11;0.20;;;0.20;;
14408;SDS011;7289;50.706;4.992;2022-11-12T09:03:58;0.20;;;0.20;;
14408;SDS011;7289;50.706;4.992;2022-11-12T09:06:47;0.10;;;0.10;;
14408;SDS011;7289;50.706;4.992;2022-11-12T09:09:38;0.10;;;0.10;;
14408;SDS011;7289;50.706;4.992;2022-11-12T09:12:24;0.20;;;0.20;;
14408;SDS011;7289;50.706;4.992;2022-11-12T09:15:11;0.20;;;0.20;;
14408;SDS011;7289;50.706;4.992;2022-11-12T09:18:18;0.20;;;0.20;;
14408;SDS011;7289;50.706;4.992;2022-11-12T09:21:06;0.20;;;0.20;;
14408;SDS011;7289;50.706;4.992;2022-11-12T09:23:56;0.20;;;0.20;;
14408;SDS011;7289;50.706;4.992;2022-11-12T09:26:43;0.20;;;0.20;;
14408;SDS011;7289;50.706;4.992;2022-11-12T09:29:29;0.10;;;0.10;;
14408;SDS011;7289;50.706;4.992;2022-11-12T09:32:16;0.20;;;0.20;;
14408;SDS011;7289;50.706;4.992;2022-11-12T09:35:03;0.20;;;0.20;;
14408;SDS011;7289;50.706;4.992;2022-11-12T09:37:53;0.20;;;0.20;;
14408;SDS011;7289;50.706;4.992;2022-11-12T09:40:45;0.10;;;0.10;;
14408;SDS011;7289;50.706;4.992;2022-11-12T09:43:41;0.10;;;0.10;;
14408;SDS011;7289;50.706;4.992;2022-11-12T09:46:35;0.10;;;0.10;;
14408;SDS011;7289;50.706;4.992;2022-11-12T09:49:27;0.10;;;0.10;;
14408;SDS011;7289;50.706;4.992;2022-11-12T09:52:18;0.10;;;0.10;;
14408;SDS011;7289;50.706;4.992;2022-11-12T09:55:11;0.10;;;0.10;;
14408;SDS011;7289;50.706;4.992;2022-11-12T09:58:07;0.10;;;0.10;;
14408;SDS011;7289;50.706;4.992;2022-11-12T10:00:58;0.10;;;0.10;;
14408;SDS011;7289;50.706;4.992;2022-11-12T10:03:51;0.10;;;0.10;;
14408;SDS011;7289;50.706;4.992;2022-11-12T10:06:48;0.10;;;0.10;;
14408;SDS011;7289;50.706;4.992;2022-11-12T10:09:43;0.10;;;0.10;;
14408;SDS011;7289;50.706;4.992;2022-11-12T10:12:42;0.10;;;0.10;;
14408;SDS011;7289;50.706;4.992;2022-11-12T10:15:38;0.10;;;0.10;;
14408;SDS011;7289;50.706;4.992;2022-11-12T10:18:55;0.10;;;0.10;;
14408;SDS011;7289;50.706;4.992;2022-11-12T10:21:57;0.10;;;0.10;;
14408;SDS011;7289;50.706;4.992;2022-11-12T10:24:55;0.10;;;0.10;;
14408;SDS011;7289;50.706;4.992;2022-11-12T10:27:44;0.10;;;0.10;;
14408;SDS011;7289;50.706;4.992;2022-11-12T10:30:31;0.10;;;0.10;;
14408;SDS011;7289;50.706;4.992;2022-11-12T10:33:22;0.10;;;0.10;;
14408;SDS011;7289;50.706;4.992;2022-11-12T10:36:17;0.10;;;0.10;;
14408;SDS011;7289;50.706;4.992;2022-11-12T10:39:09;0.10;;;0.10;;
14408;SDS011;7289;50.706;4.992;2022-11-12T10:42:18;0.10;;;0.10;;
14408;SDS011;7289;50.706;4.992;2022-11-12T10:45:17;0.10;;;0.10;;
14408;SDS011;7289;50.706;4.992;2022-11-12T10:48:18;0.20;;;0.20;;
14408;SDS011;7289;50.706;4.992;2022-11-12T10:51:21;0.10;;;0.10;;
14408;SDS011;7289;50.706;4.992;2022-11-12T10:54:19;0.10;;;0.10;;
14408;SDS011;7289;50.706;4.992;2022-11-12T10:57:20;0.10;;;0.10;;
14408;SDS011;7289;50.706;4.992;2022-11-12T11:00:16;0.10;;;0.10;;
14408;SDS011;7289;50.706;4.992;2022-11-12T11:03:05;0.10;;;0.10;;
14408;SDS011;7289;50.706;4.992;2022-11-12T11:06:04;0.10;;;0.10;;
14408;SDS011;7289;50.706;4.992;2022-11-12T11:08:53;0.10;;;0.10;;
14408;SDS011;7289;50.706;4.992;2022-11-12T11:11:53;0.10;;;0.10;;
14408;SDS011;7289;50.706;4.992;2022-11-12T11:14:40;0.10;;;0.10;;
14408;SDS011;7289;50.706;4.992;2022-11-12T11:17:28;0.10;;;0.10;;
14408;SDS011;7289;50.706;4.992;2022-11-12T11:20:17;0.10;;;0.10;;
14408;SDS011;7289;50.706;4.992;2022-11-12T11:23:11;0.10;;;0.10;;
14408;SDS011;7289;50.706;4.992;2022-11-12T11:26:06;0.10;;;0.10;;
14408;SDS011;7289;50.706;4.992;2022-11-12T11:29:12;0.10;;;0.10;;
14408;SDS011;7289;50.706;4.992;2022-11-12T11:32:15;0.10;;;0.10;;
14408;SDS011;7289;50.706;4.992;2022-11-12T11:35:16;0.10;;;0.10;;
14408;SDS011;7289;50.706;4.992;2022-11-12T11:38:22;0.10;;;0.10;;
14408;SDS011;7289;50.706;4.992;2022-11-12T11:41:22;0.10;;;0.10;;
14408;SDS011;7289;50.706;4.992;2022-11-12T11:44:22;0.10;;;0.10;;
14408;SDS011;7289;50.706;4.992;2022-11-12T11:47:20;0.10;;;0.10;;
14408;SDS011;7289;50.706;4.992;2022-11-12T11:50:36;0.10;;;0.10;;
14408;SDS011;7289;50.706;4.992;2022-11-12T11:53:30;0.10;;;0.10;;
14408;SDS011;7289;50.706;4.992;2022-11-12T11:56:24;0.10;;;0.10;;
14408;SDS011;7289;50.706;4.992;2022-11-12T11:59:22;0.10;;;0.10;;
14408;SDS011;7289;50.706;4.992;2022-11-12T12:02:31;0.10;;;0.10;;
14408;SDS011;7289;50.706;4.992;2022-11-12T12:05:29;0.10;;;0.10;;
14408;SDS011;7289;50.706;4.992;2022-11-12T12:08:25;0.10;;;0.10;;
14408;SDS011;7289;50.706;4.992;2022-11-12T12:11:22;0.10;;;0.10;;
14408;SDS011;7289;50.706;4.992;2022-11-12T12:14:22;0.10;;;0.10;;
14408;SDS011;7289;50.706;4.992;2022-11-12T12:17:17;0.10;;;0.10;;
14408;SDS011;7289;50.706;4.992;2022-11-12T12:20:18;0.10;;;0.10;;
14408;SDS011;7289;50.706;4.992;2022-11-12T12:23:10;0.10;;;0.10;;
14408;SDS011;7289;50.706;4.992;2022-11-12T12:26:06;0.10;;;0.10;;
14408;SDS011;7289;50.706;4.992;2022-11-12T12:29:00;0.10;;;0.10;;
14408;SDS011;7289;50.706;4.992;2022-11-12T12:31:54;0.10;;;0.10;;
14408;SDS011;7289;50.706;4.992;2022-11-12T12:34:46;0.10;;;0.10;;
14408;SDS011;7289;50.706;4.992;2022-11-12T12:37:40;0.10;;;0.10;;
14408;SDS011;7289;50.706;4.992;2022-11-12T12:40:31;0.10;;;0.10;;
14408;SDS011;7289;50.706;4.992;2022-11-12T12:43:23;0.10;;;0.10;;
14408;SDS011;7289;50.706;4.992;2022-11-12T12:46:19;0.10;;;0.10;;
14408;SDS011;7289;50.706;4.992;2022-11-12T12:49:10;0.10;;;0.10;;
14408;SDS011;7289;50.706;4.992;2022-11-12T12:52:01;0.10;;;0.10;;
14408;SDS011;7289;50.706;4.992;2022-11-12T12:54:54;0.10;;;0.10;;
14408;SDS011;7289;50.706;4.992;2022-11-12T12:57:42;0.10;;;0.10;;
14408;SDS011;7289;50.706;4.992;2022-11-12T13:00:35;0.10;;;0.10;;
14408;SDS011;7289;50.706;4.992;2022-11-12T13:06:50;0.10;;;0.10;;
14408;SDS011;7289;50.706;4.992;2022-11-12T13:09:39;0.10;;;0.10;;
14408;SDS011;7289;50.706;4.992;2022-11-12T13:15:47;0.10;;;0.10;;
14408;SDS011;7289;50.706;4.992;2022-11-12T13:21:56;0.10;;;0.10;;
14408;SDS011;7289;50.706;4.992;2022-11-12T13:25:26;0.10;;;0.10;;
14408;SDS011;7289;50.706;4.992;2022-11-12T13:28:14;0.10;;;0.10;;
14408;SDS011;7289;50.706;4.992;2022-11-12T13:31:02;0.10;;;0.10;;
14408;SDS011;7289;50.706;4.992;2022-11-12T13:33:49;0.10;;;0.10;;
14408;SDS011;7289;50.706;4.992;2022-11-12T13:36:36;0.10;;;0.10;;
14408;SDS011;7289;50.706;4.992;2022-11-12T13:39:23;0.10;;;0.10;;
14408;SDS011;7289;50.706;4.992;2022-11-12T13:42:11;0.10;;;0.10;;
14408;SDS011;7289;50.706;4.992;2022-11-12T13:45:18;0.10;;;0.10;;
14408;SDS011;7289;50.706;4.992;2022-11-12T13:48:11;0.10;;;0.10;;
14408;SDS011;7289;50.706;4.992;2022-11-12T13:51:01;0.10;;;0.10;;
14408;SDS011;7289;50.706;4.992;2022-11-12T13:53:49;0.10;;;0.10;;
14408;SDS011;7289;50.706;4.992;2022-11-12T13:56:36;0.10;;;0.10;;
14408;SDS011;7289;50.706;4.992;2022-11-12T13:59:23;0.10;;;0.10;;
14408;SDS011;7289;50.706;4.992;2022-11-12T14:02:18;0.10;;;0.10;;
14408;SDS011;7289;50.706;4.992;2022-11-12T14:05:16;0.10;;;0.10;;
14408;SDS011;7289;50.706;4.992;2022-11-12T14:08:08;0.10;;;0.10;;
14408;SDS011;7289;50.706;4.992;2022-11-12T14:11:33;0.10;;;0.10;;
14408;SDS011;7289;50.706;4.992;2022-11-12T14:14:32;0.10;;;0.10;;
14408;SDS011;7289;50.706;4.992;2022-11-12T14:17:32;0.10;;;0.10;;
14408;SDS011;7289;50.706;4.992;2022-11-12T14:20:26;0.10;;;0.10;;
14408;SDS011;7289;50.706;4.992;2022-11-12T14:23:15;0.10;;;0.10;;
14408;SDS011;7289;50.706;4.992;2022-11-12T14:26:09;0.10;;;0.10;;
14408;SDS011;7289;50.706;4.992;2022-11-12T14:28:56;0.10;;;0.10;;
14408;SDS011;7289;50.706;4.992;2022-11-12T14:31:43;0.10;;;0.10;;
14408;SDS011;7289;50.706;4.992;2022-11-12T14:34:31;0.10;;;0.10;;
14408;SDS011;7289;50.706;4.992;2022-11-12T14:37:30;0.10;;;0.10;;
14408;SDS011;7289;50.706;4.992;2022-11-12T14:40:27;0.10;;;0.10;;
14408;SDS011;7289;50.706;4.992;2022-11-12T14:46:22;0.10;;;0.10;;
14408;SDS011;7289;50.706;4.992;2022-11-12T14:49:13;0.10;;;0.10;;
14408;SDS011;7289;50.706;4.992;2022-11-12T14:52:06;0.10;;;0.10;;
14408;SDS011;7289;50.706;4.992;2022-11-12T14:54:59;0.10;;;0.10;;
14408;SDS011;7289;50.706;4.992;2022-11-12T14:57:51;0.10;;;0.10;;
14408;SDS011;7289;50.706;4.992;2022-11-12T15:00:43;0.10;;;0.10;;
14408;SDS011;7289;50.706;4.992;2022-11-12T15:03:32;0.10;;;0.10;;
14408;SDS011;7289;50.706;4.992;2022-11-12T15:06:25;0.10;;;0.10;;
14408;SDS011;7289;50.706;4.992;2022-11-12T15:09:15;0.10;;;0.10;;
14408;SDS011;7289;50.706;4.992;2022-11-12T15:12:07;0.10;;;0.10;;
14408;SDS011;7289;50.706;4.992;2022-11-12T15:15:07;0.10;;;0.10;;
14408;SDS011;7289;50.706;4.992;2022-11-12T15:17:55;0.10;;;0.10;;
14408;SDS011;7289;50.706;4.992;2022-11-12T15:20:43;0.10;;;0.10;;
14408;SDS011;7289;50.706;4.992;2022-11-12T15:23:30;0.10;;;0.10;;
14408;SDS011;7289;50.706;4.992;2022-11-12T15:26:22;0.10;;;0.10;;
14408;SDS011;7289;50.706;4.992;2022-11-12T15:29:17;0.10;;;0.10;;
14408;SDS011;7289;50.706;4.992;2022-11-12T15:32:30;0.10;;;0.10;;
14408;SDS011;7289;50.706;4.992;2022-11-12T15:35:19;0.10;;;0.10;;
14408;SDS011;7289;50.706;4.992;2022-11-12T15:38:17;0.10;;;0.10;;
14408;SDS011;7289;50.706;4.992;2022-11-12T15:41:17;0.10;;;0.10;;
14408;SDS011;7289;50.706;4.992;2022-11-12T15:44:10;0.10;;;0.10;;
14408;SDS011;7289;50.706;4.992;2022-11-12T15:46:59;0.10;;;0.10;;
14408;SDS011;7289;50.706;4.992;2022-11-12T15:49:47;0.10;;;0.10;;
14408;SDS011;7289;50.706;4.992;2022-11-12T15:52:37;0.10;;;0.10;;
14408;SDS011;7289;50.706;4.992;2022-11-12T15:55:24;0.10;;;0.10;;
14408;SDS011;7289;50.706;4.992;2022-11-12T15:58:11;0.10;;;0.10;;
14408;SDS011;7289;50.706;4.992;2022-11-12T16:01:02;0.10;;;0.10;;
14408;SDS011;7289;50.706;4.992;2022-11-12T16:03:51;0.10;;;0.10;;
14408;SDS011;7289;50.706;4.992;2022-11-12T16:06:38;0.10;;;0.10;;
14408;SDS011;7289;50.706;4.992;2022-11-12T16:09:25;0.10;;;0.10;;
14408;SDS011;7289;50.706;4.992;2022-11-12T16:12:12;0.10;;;0.10;;
14408;SDS011;7289;50.706;4.992;2022-11-12T16:14:59;0.10;;;0.10;;
14408;SDS011;7289;50.706;4.992;2022-11-12T16:17:49;0.10;;;0.10;;
14408;SDS011;7289;50.706;4.992;2022-11-12T16:20:38;0.13;;;0.13;;
14408;SDS011;7289;50.706;4.992;2022-11-12T16:23:25;0.10;;;0.10;;
14408;SDS011;7289;50.706;4.992;2022-11-12T16:26:13;0.10;;;0.10;;
14408;SDS011;7289;50.706;4.992;2022-11-12T16:29:07;0.10;;;0.10;;
14408;SDS011;7289;50.706;4.992;2022-11-12T16:31:58;0.10;;;0.10;;
14408;SDS011;7289;50.706;4.992;2022-11-12T16:34:44;0.10;;;0.10;;
14408;SDS011;7289;50.706;4.992;2022-11-12T16:37:33;0.10;;;0.10;;
14408;SDS011;7289;50.706;4.992;2022-11-12T16:40:22;0.10;;;0.10;;
14408;SDS011;7289;50.706;4.992;2022-11-12T16:43:11;0.10;;;0.10;;
14408;SDS011;7289;50.706;4.992;2022-11-12T16:45:59;0.10;;;0.10;;
14408;SDS011;7289;50.706;4.992;2022-11-12T16:48:46;0.10;;;0.10;;
14408;SDS011;7289;50.706;4.992;2022-11-12T16:51:33;0.10;;;0.10;;
14408;SDS011;7289;50.706;4.992;2022-11-12T16:54:21;0.10;;;0.10;;
14408;SDS011;7289;50.706;4.992;2022-11-12T16:57:08;0.13;;;0.13;;
14408;SDS011;7289;50.706;4.992;2022-11-12T16:59:56;0.10;;;0.10;;
14408;SDS011;7289;50.706;4.992;2022-11-12T17:02:43;0.10;;;0.10;;
14408;SDS011;7289;50.706;4.992;2022-11-12T17:05:37;0.10;;;0.10;;
14408;SDS011;7289;50.706;4.992;2022-11-12T17:08:24;0.15;;;0.15;;
14408;SDS011;7289;50.706;4.992;2022-11-12T17:11:19;0.10;;;0.10;;
14408;SDS011;7289;50.706;4.992;2022-11-12T17:14:06;0.10;;;0.10;;
14408;SDS011;7289;50.706;4.992;2022-11-12T17:16:53;0.10;;;0.10;;
14408;SDS011;7289;50.706;4.992;2022-11-12T17:19:40;0.17;;;0.17;;
14408;SDS011;7289;50.706;4.992;2022-11-12T17:22:28;0.10;;;0.10;;
14408;SDS011;7289;50.706;4.992;2022-11-12T17:25:14;0.10;;;0.10;;
14408;SDS011;7289;50.706;4.992;2022-11-12T17:28:03;0.10;;;0.10;;
14408;SDS011;7289;50.706;4.992;2022-11-12T17:30:49;0.10;;;0.10;;
14408;SDS011;7289;50.706;4.992;2022-11-12T17:33:37;0.10;;;0.10;;